createdAt,value
2022-12-09T00:00:14.781Z,8.65
2022-12-09T00:05:16.425Z,8.38
2022-12-09T00:10:18.004Z,8.40
2022-12-09T00:15:19.701Z,8.43
2022-12-09T00:20:21.134Z,8.15
2022-12-09T00:25:22.611Z,11.32
2022-12-09T00:30:24.072Z,10.25
2022-12-09T00:35:25.720Z,9.73
2022-12-09T00:40:27.197Z,9.52
2022-12-09T00:45:28.920Z,89.38
2022-12-09T00:50:31.014Z,8.43
2022-12-09T00:55:33.798Z,10.32
2022-12-09T01:00:35.453Z,13.85
2022-12-09T01:05:37.348Z,11.52
2022-12-09T01:10:40.922Z,10.38
2022-12-09T01:15:43.834Z,9.52
2022-12-09T01:20:45.534Z,9.00
2022-12-09T01:25:47.462Z,9.50
2022-12-09T01:30:49.050Z,10.02
2022-12-09T01:35:50.927Z,10.57
2022-12-09T01:40:53.906Z,10.98
2022-12-09T01:45:55.502Z,10.57
2022-12-09T01:51:05.767Z,11.52
2022-12-09T01:56:15.135Z,10.20
2022-12-09T02:01:18.133Z,12.43
2022-12-09T02:06:20.850Z,9.50
2022-12-09T02:11:29.048Z,12.00
2022-12-09T02:16:39.212Z,10.43
2022-12-09T02:22:13.747Z,11.27
2022-12-09T02:27:23.408Z,11.25
2022-12-09T02:32:48.031Z,10.63
2022-12-09T02:37:55.925Z,11.43
2022-12-09T02:43:00.113Z,11.23
2022-12-09T02:48:04.508Z,11.07
2022-12-09T02:53:12.170Z,10.82
2022-12-09T02:58:14.496Z,11.73
2022-12-09T03:03:17.719Z,12.20
2022-12-09T03:08:42.290Z,12.75
2022-12-09T03:14:03.637Z,13.77
2022-12-09T03:19:36.274Z,13.63
2022-12-09T03:25:01.105Z,14.87
2022-12-09T03:30:05.918Z,14.40
2022-12-09T03:35:12.644Z,13.73
2022-12-09T03:40:20.005Z,14.40
2022-12-09T03:45:24.868Z,11.57
2022-12-09T03:50:32.078Z,12.73
2022-12-09T03:55:43.210Z,12.75
2022-12-09T04:00:46.991Z,11.13
2022-12-09T04:05:49.073Z,12.60
2022-12-09T04:10:51.034Z,13.13
2022-12-09T04:15:52.490Z,11.23
2022-12-09T04:20:54.268Z,16.25
2022-12-09T04:25:56.034Z,10.82
2022-12-09T04:30:58.203Z,11.27
2022-12-09T04:36:12.481Z,10.73
2022-12-09T04:41:15.195Z,12.25
2022-12-09T04:46:18.736Z,12.77
2022-12-09T04:51:20.781Z,13.15
2022-12-09T04:56:22.892Z,11.38
2022-12-09T05:01:30.688Z,12.07
2022-12-09T05:06:33.602Z,12.43
2022-12-09T05:11:35.335Z,13.93
2022-12-09T05:16:37.420Z,12.90
2022-12-09T05:21:39.496Z,11.33
2022-12-09T05:26:41.139Z,13.30
2022-12-09T05:31:43.353Z,13.05
2022-12-09T05:36:45.013Z,16.05
2022-12-09T05:41:47.461Z,16.63
2022-12-09T05:46:49.878Z,17.00
2022-12-09T05:51:52.011Z,17.42
2022-12-09T05:56:53.527Z,19.40
2022-12-09T06:01:55.741Z,19.15
2022-12-09T06:06:57.853Z,19.83
2022-12-09T06:11:59.948Z,19.03
2022-12-09T06:17:01.758Z,17.02
2022-12-09T06:22:04.946Z,17.30
2022-12-09T06:27:07.035Z,16.38
2022-12-09T06:32:08.653Z,19.00
2022-12-09T06:37:11.501Z,20.15
2022-12-09T06:42:13.258Z,18.70
2022-12-09T06:47:14.762Z,17.08
2022-12-09T06:52:16.585Z,17.77
2022-12-09T06:57:18.404Z,15.93
2022-12-09T07:02:20.151Z,15.63
2022-12-09T07:07:23.233Z,15.83
2022-12-09T07:12:24.984Z,18.45
2022-12-09T07:17:27.046Z,23.63
2022-12-09T07:22:28.932Z,20.20
2022-12-09T07:27:30.470Z,23.33
2022-12-09T07:32:32.298Z,19.05
2022-12-09T07:37:34.247Z,15.68
2022-12-09T07:42:37.998Z,15.55
2022-12-09T12:35:40.688Z,18.95
2022-12-09T12:41:27.694Z,21.05
2022-12-09T12:46:55.632Z,21.08
2022-12-09T12:52:21.061Z,18.33
2022-12-09T12:58:06.673Z,18.90
2022-12-09T13:03:25.579Z,20.70
2022-12-09T13:08:42.551Z,21.27
2022-12-09T13:13:59.478Z,21.67
2022-12-09T13:19:44.152Z,22.52
2022-12-09T13:25:11.853Z,20.83
2022-12-09T13:30:20.735Z,23.52
2022-12-09T13:35:45.478Z,24.15
2022-12-09T13:40:46.894Z,28.15
2022-12-09T13:45:52.910Z,23.08
2022-12-09T13:50:59.242Z,22.52
2022-12-09T13:56:18.128Z,23.02
2022-12-09T14:01:24.746Z,21.52
2022-12-09T14:06:40.187Z,22.52
2022-12-09T14:11:47.071Z,21.65
2022-12-09T14:16:49.366Z,26.05
2022-12-09T14:22:19.614Z,24.13
2022-12-09T14:27:31.413Z,22.00
2022-12-09T14:32:51.073Z,23.23
2022-12-09T14:38:14.260Z,21.13
2022-12-09T14:43:35.423Z,24.90
2022-12-09T14:48:40.719Z,26.23
2022-12-09T14:53:42.766Z,22.23
2022-12-09T14:58:50.090Z,28.52
2022-12-09T15:03:58.407Z,23.48
2022-12-09T15:08:59.958Z,25.70
2022-12-09T15:14:24.931Z,26.02
2022-12-09T15:19:59.151Z,25.70
2022-12-09T15:24:51.460Z,26.55
2022-12-09T15:29:54.255Z,25.23
2022-12-09T15:35:14.367Z,29.70
2022-12-09T15:40:19.778Z,24.98
2022-12-09T15:45:25.399Z,27.52
2022-12-09T15:50:33.131Z,25.10
2022-12-09T15:55:40.305Z,55.20
2022-12-09T16:00:49.322Z,27.25
2022-12-09T16:05:56.478Z,24.83
2022-12-09T16:10:58.472Z,24.58
2022-12-09T16:16:02.920Z,27.67
2022-12-09T16:21:27.816Z,23.23
2022-12-09T16:26:32.927Z,20.30
2022-12-09T16:31:34.456Z,22.67
2022-12-09T16:36:35.875Z,27.17
2022-12-09T16:41:52.611Z,26.13
2022-12-09T16:47:09.252Z,24.35
2022-12-09T16:52:13.469Z,21.63
2022-12-09T16:57:16.896Z,20.98
2022-12-09T17:02:23.860Z,31.08
2022-12-09T17:07:25.354Z,24.08
2022-12-09T17:12:26.914Z,25.13
2022-12-09T17:17:28.575Z,31.52
2022-12-09T17:22:30.033Z,25.35
2022-12-09T17:27:31.563Z,26.00
2022-12-09T17:32:33.016Z,30.48
2022-12-09T17:37:34.429Z,23.15
2022-12-09T17:42:36.186Z,25.38
2022-12-09T17:47:37.635Z,25.75
2022-12-09T17:52:39.956Z,24.55
2022-12-09T17:57:41.511Z,37.30
2022-12-09T18:02:42.981Z,27.35
2022-12-09T18:07:44.499Z,27.35
2022-12-09T18:12:46.001Z,25.02
2022-12-09T18:17:47.388Z,26.92
2022-12-09T18:22:48.771Z,27.58
2022-12-09T18:27:50.764Z,21.58
2022-12-09T18:32:52.176Z,29.08
2022-12-09T18:37:53.625Z,31.83
2022-12-09T18:42:55.023Z,24.92
2022-12-09T18:47:56.422Z,25.05
2022-12-09T18:52:57.804Z,26.92
2022-12-09T18:57:59.242Z,22.05
2022-12-09T19:03:00.728Z,25.63
2022-12-09T19:08:02.407Z,23.73
2022-12-09T19:13:04.807Z,21.02
2022-12-09T19:18:06.228Z,20.33
2022-12-09T19:23:08.841Z,20.90
2022-12-09T19:28:14.136Z,20.33
2022-12-09T19:33:15.867Z,20.55
2022-12-09T19:38:17.428Z,19.05
2022-12-09T19:43:18.812Z,21.88
2022-12-09T19:48:20.683Z,24.42
2022-12-09T19:53:22.105Z,89.47
2022-12-09T19:58:23.523Z,20.98
2022-12-09T20:03:25.732Z,23.02
2022-12-09T20:08:27.224Z,20.73
2022-12-09T20:13:31.834Z,20.38
2022-12-09T20:18:34.102Z,18.88
2022-12-09T20:23:37.497Z,23.10
2022-12-09T20:28:40.207Z,22.95
2022-12-09T20:33:41.692Z,19.58
2022-12-09T20:38:48.303Z,19.65
2022-12-09T20:43:51.583Z,22.42
2022-12-09T20:48:53.284Z,23.17
2022-12-09T20:53:56.055Z,19.75
2022-12-09T20:58:58.243Z,21.27
2022-12-09T21:04:00.905Z,29.33
2022-12-09T21:09:05.714Z,29.75
2022-12-09T21:14:07.231Z,36.55
2022-12-09T21:19:12.586Z,31.48
2022-12-09T21:24:15.764Z,30.45
2022-12-09T21:34:18.572Z,31.55
2022-12-09T21:39:20.138Z,28.90
2022-12-09T21:44:22.318Z,33.75
2022-12-09T21:49:23.921Z,30.03
2022-12-09T21:54:25.623Z,35.58
2022-12-09T21:59:27.033Z,31.02
2022-12-09T22:04:28.431Z,31.75
2022-12-09T22:09:29.830Z,30.50
2022-12-09T22:14:31.262Z,35.50
2022-12-09T22:19:32.762Z,33.33
2022-12-09T22:24:34.294Z,35.08
2022-12-09T22:29:35.717Z,36.40
2022-12-09T22:34:37.111Z,36.17
2022-12-09T22:39:38.546Z,39.45
2022-12-09T22:44:40.564Z,41.22
2022-12-09T22:49:42.001Z,41.05
2022-12-09T22:54:43.417Z,41.95
2022-12-09T22:59:44.826Z,47.03
2022-12-09T23:04:46.239Z,51.67
2022-12-09T23:09:47.668Z,45.60
2022-12-09T23:14:49.086Z,45.72
2022-12-09T23:19:50.498Z,46.78
2022-12-09T23:24:51.915Z,49.90
2022-12-09T23:29:53.299Z,53.50
2022-12-09T23:34:55.252Z,45.83
2022-12-09T23:39:56.931Z,45.38
2022-12-09T23:44:58.360Z,44.65
2022-12-09T23:49:59.833Z,50.58
2022-12-09T23:55:04.527Z,92.78
